sensor_id;sensor_type;location;lat;lon;timestamp;P1;durP1;ratioP1;P2;durP2;ratioP2
66546;SDS011;53400;50.364;14.874;2022-12-31T00:02:17;20.77;;;11.43;;
66546;SDS011;53400;50.364;14.874;2022-12-31T00:04:43;20.20;;;11.75;;
66546;SDS011;53400;50.364;14.874;2022-12-31T00:07:09;22.08;;;11.95;;
66546;SDS011;53400;50.364;14.874;2022-12-31T00:09:34;23.05;;;12.77;;
66546;SDS011;53400;50.364;14.874;2022-12-31T00:12:02;16.80;;;10.63;;
66546;SDS011;53400;50.364;14.874;2022-12-31T00:14:28;21.70;;;11.65;;
66546;SDS011;53400;50.364;14.874;2022-12-31T00:16:54;22.30;;;12.00;;
66546;SDS011;53400;50.364;14.874;2022-12-31T00:19:20;21.92;;;12.25;;
66546;SDS011;53400;50.364;14.874;2022-12-31T00:21:46;22.80;;;12.30;;
66546;SDS011;53400;50.364;14.874;2022-12-31T00:24:12;22.05;;;11.20;;
66546;SDS011;53400;50.364;14.874;2022-12-31T00:26:39;21.95;;;10.63;;
66546;SDS011;53400;50.364;14.874;2022-12-31T00:29:08;22.63;;;11.48;;
66546;SDS011;53400;50.364;14.874;2022-12-31T00:31:35;20.30;;;11.55;;
66546;SDS011;53400;50.364;14.874;2022-12-31T00:34:03;20.98;;;10.25;;
66546;SDS011;53400;50.364;14.874;2022-12-31T00:36:31;25.92;;;12.02;;
66546;SDS011;53400;50.364;14.874;2022-12-31T00:39:00;19.45;;;11.48;;
66546;SDS011;53400;50.364;14.874;2022-12-31T00:41:28;21.63;;;12.48;;
66546;SDS011;53400;50.364;14.874;2022-12-31T00:43:54;23.00;;;12.18;;
66546;SDS011;53400;50.364;14.874;2022-12-31T00:46:23;20.90;;;11.90;;
66546;SDS011;53400;50.364;14.874;2022-12-31T00:48:50;18.23;;;11.63;;
66546;SDS011;53400;50.364;14.874;2022-12-31T00:51:18;20.67;;;11.30;;
66546;SDS011;53400;50.364;14.874;2022-12-31T00:53:46;22.80;;;12.20;;
66546;SDS011;53400;50.364;14.874;2022-12-31T00:56:13;18.83;;;11.90;;
66546;SDS011;53400;50.364;14.874;2022-12-31T00:58:40;22.75;;;12.88;;
66546;SDS011;53400;50.364;14.874;2022-12-31T01:01:07;20.42;;;11.18;;
66546;SDS011;53400;50.364;14.874;2022-12-31T01:03:35;22.27;;;12.77;;
66546;SDS011;53400;50.364;14.874;2022-12-31T01:06:01;22.27;;;12.32;;
66546;SDS011;53400;50.364;14.874;2022-12-31T01:08:27;21.27;;;12.68;;
66546;SDS011;53400;50.364;14.874;2022-12-31T01:10:53;24.75;;;13.05;;
66546;SDS011;53400;50.364;14.874;2022-12-31T01:13:37;23.17;;;13.18;;
66546;SDS011;53400;50.364;14.874;2022-12-31T01:16:06;24.80;;;12.55;;
66546;SDS011;53400;50.364;14.874;2022-12-31T01:18:33;24.15;;;12.73;;
66546;SDS011;53400;50.364;14.874;2022-12-31T01:21:00;22.30;;;12.80;;
66546;SDS011;53400;50.364;14.874;2022-12-31T01:23:27;22.45;;;12.77;;
66546;SDS011;53400;50.364;14.874;2022-12-31T01:25:53;22.48;;;13.10;;
66546;SDS011;53400;50.364;14.874;2022-12-31T01:28:19;22.23;;;13.43;;
66546;SDS011;53400;50.364;14.874;2022-12-31T01:30:45;25.80;;;12.73;;
66546;SDS011;53400;50.364;14.874;2022-12-31T01:33:11;23.50;;;13.27;;
66546;SDS011;53400;50.364;14.874;2022-12-31T01:35:38;24.05;;;13.32;;
66546;SDS011;53400;50.364;14.874;2022-12-31T01:38:04;22.48;;;12.05;;
66546;SDS011;53400;50.364;14.874;2022-12-31T01:40:30;23.95;;;12.15;;
66546;SDS011;53400;50.364;14.874;2022-12-31T01:43:00;22.27;;;11.95;;
66546;SDS011;53400;50.364;14.874;2022-12-31T01:45:26;22.95;;;13.05;;
66546;SDS011;53400;50.364;14.874;2022-12-31T01:47:53;26.48;;;13.70;;
66546;SDS011;53400;50.364;14.874;2022-12-31T01:50:23;22.27;;;13.48;;
66546;SDS011;53400;50.364;14.874;2022-12-31T01:52:54;24.52;;;13.25;;
66546;SDS011;53400;50.364;14.874;2022-12-31T01:55:24;24.25;;;13.40;;
66546;SDS011;53400;50.364;14.874;2022-12-31T01:57:53;27.88;;;14.00;;
66546;SDS011;53400;50.364;14.874;2022-12-31T02:00:23;23.95;;;14.15;;
66546;SDS011;53400;50.364;14.874;2022-12-31T02:02:49;22.95;;;12.40;;
66546;SDS011;53400;50.364;14.874;2022-12-31T02:05:17;22.17;;;12.73;;
66546;SDS011;53400;50.364;14.874;2022-12-31T02:07:47;25.67;;;13.02;;
66546;SDS011;53400;50.364;14.874;2022-12-31T02:10:15;21.08;;;12.77;;
66546;SDS011;53400;50.364;14.874;2022-12-31T02:12:41;26.27;;;13.93;;
66546;SDS011;53400;50.364;14.874;2022-12-31T02:15:08;25.98;;;13.95;;
66546;SDS011;53400;50.364;14.874;2022-12-31T02:17:35;26.92;;;14.25;;
66546;SDS011;53400;50.364;14.874;2022-12-31T02:26:34;26.27;;;14.20;;
66546;SDS011;53400;50.364;14.874;2022-12-31T02:29:15;23.98;;;13.85;;
66546;SDS011;53400;50.364;14.874;2022-12-31T02:32:02;26.00;;;15.43;;
66546;SDS011;53400;50.364;14.874;2022-12-31T02:34:37;25.17;;;15.13;;
66546;SDS011;53400;50.364;14.874;2022-12-31T02:37:10;31.77;;;16.55;;
66546;SDS011;53400;50.364;14.874;2022-12-31T02:39:39;30.40;;;16.98;;
66546;SDS011;53400;50.364;14.874;2022-12-31T02:42:08;27.40;;;15.18;;
66546;SDS011;53400;50.364;14.874;2022-12-31T02:44:35;29.50;;;17.50;;
66546;SDS011;53400;50.364;14.874;2022-12-31T02:47:08;30.45;;;17.50;;
66546;SDS011;53400;50.364;14.874;2022-12-31T02:49:43;35.20;;;18.90;;
66546;SDS011;53400;50.364;14.874;2022-12-31T02:52:22;30.25;;;17.80;;
66546;SDS011;53400;50.364;14.874;2022-12-31T02:55:01;32.50;;;17.95;;
66546;SDS011;53400;50.364;14.874;2022-12-31T02:57:35;31.50;;;17.60;;
66546;SDS011;53400;50.364;14.874;2022-12-31T03:00:05;29.10;;;17.40;;
66546;SDS011;53400;50.364;14.874;2022-12-31T03:02:53;29.00;;;16.83;;
66546;SDS011;53400;50.364;14.874;2022-12-31T03:05:21;32.95;;;19.02;;
66546;SDS011;53400;50.364;14.874;2022-12-31T03:07:49;30.92;;;17.55;;
66546;SDS011;53400;50.364;14.874;2022-12-31T03:10:15;29.98;;;16.65;;
66546;SDS011;53400;50.364;14.874;2022-12-31T03:12:42;32.15;;;18.35;;
66546;SDS011;53400;50.364;14.874;2022-12-31T03:15:13;28.00;;;16.85;;
66546;SDS011;53400;50.364;14.874;2022-12-31T03:17:48;27.45;;;17.02;;
66546;SDS011;53400;50.364;14.874;2022-12-31T03:20:16;30.50;;;16.77;;
66546;SDS011;53400;50.364;14.874;2022-12-31T03:23:02;27.58;;;15.27;;
66546;SDS011;53400;50.364;14.874;2022-12-31T03:25:28;32.22;;;18.30;;
66546;SDS011;53400;50.364;14.874;2022-12-31T03:27:58;28.17;;;15.52;;
66546;SDS011;53400;50.364;14.874;2022-12-31T03:30:24;27.20;;;16.27;;
66546;SDS011;53400;50.364;14.874;2022-12-31T03:32:51;27.35;;;16.20;;
66546;SDS011;53400;50.364;14.874;2022-12-31T03:35:19;27.33;;;16.83;;
66546;SDS011;53400;50.364;14.874;2022-12-31T03:37:45;27.80;;;16.30;;
66546;SDS011;53400;50.364;14.874;2022-12-31T03:40:12;32.78;;;17.48;;
66546;SDS011;53400;50.364;14.874;2022-12-31T03:42:39;28.40;;;16.42;;
66546;SDS011;53400;50.364;14.874;2022-12-31T03:45:06;31.23;;;16.35;;
66546;SDS011;53400;50.364;14.874;2022-12-31T03:47:33;29.00;;;15.90;;
66546;SDS011;53400;50.364;14.874;2022-12-31T03:49:59;29.77;;;15.25;;
66546;SDS011;53400;50.364;14.874;2022-12-31T03:52:26;28.90;;;16.58;;
66546;SDS011;53400;50.364;14.874;2022-12-31T03:54:52;26.95;;;16.27;;
66546;SDS011;53400;50.364;14.874;2022-12-31T03:57:18;30.10;;;16.85;;
66546;SDS011;53400;50.364;14.874;2022-12-31T03:59:44;28.30;;;15.43;;
66546;SDS011;53400;50.364;14.874;2022-12-31T04:02:10;26.13;;;14.80;;
66546;SDS011;53400;50.364;14.874;2022-12-31T04:04:36;29.02;;;16.30;;
66546;SDS011;53400;50.364;14.874;2022-12-31T04:07:02;29.35;;;16.45;;
66546;SDS011;53400;50.364;14.874;2022-12-31T04:09:29;30.75;;;15.60;;
66546;SDS011;53400;50.364;14.874;2022-12-31T04:11:55;27.23;;;16.65;;
66546;SDS011;53400;50.364;14.874;2022-12-31T04:14:21;29.00;;;15.43;;
66546;SDS011;53400;50.364;14.874;2022-12-31T04:16:47;29.52;;;17.15;;
66546;SDS011;53400;50.364;14.874;2022-12-31T04:19:12;26.33;;;14.52;;
66546;SDS011;53400;50.364;14.874;2022-12-31T04:21:38;26.33;;;14.60;;
66546;SDS011;53400;50.364;14.874;2022-12-31T04:24:04;26.77;;;15.00;;
66546;SDS011;53400;50.364;14.874;2022-12-31T04:26:32;28.90;;;15.30;;
66546;SDS011;53400;50.364;14.874;2022-12-31T04:28:59;25.02;;;14.32;;
66546;SDS011;53400;50.364;14.874;2022-12-31T04:31:25;26.85;;;14.60;;
66546;SDS011;53400;50.364;14.874;2022-12-31T04:33:50;23.45;;;13.50;;
66546;SDS011;53400;50.364;14.874;2022-12-31T04:36:17;23.30;;;13.15;;
66546;SDS011;53400;50.364;14.874;2022-12-31T04:38:42;29.27;;;15.50;;
66546;SDS011;53400;50.364;14.874;2022-12-31T04:41:08;29.17;;;15.02;;
66546;SDS011;53400;50.364;14.874;2022-12-31T04:43:47;27.30;;;16.38;;
66546;SDS011;53400;50.364;14.874;2022-12-31T04:46:14;26.38;;;16.20;;
66546;SDS011;53400;50.364;14.874;2022-12-31T04:48:41;24.95;;;15.70;;
66546;SDS011;53400;50.364;14.874;2022-12-31T04:51:08;27.40;;;14.98;;
66546;SDS011;53400;50.364;14.874;2022-12-31T04:53:34;26.23;;;13.85;;
66546;SDS011;53400;50.364;14.874;2022-12-31T04:56:00;25.08;;;14.90;;
66546;SDS011;53400;50.364;14.874;2022-12-31T04:58:25;24.50;;;13.70;;
66546;SDS011;53400;50.364;14.874;2022-12-31T05:00:53;30.80;;;16.40;;
66546;SDS011;53400;50.364;14.874;2022-12-31T05:03:20;27.52;;;16.20;;
66546;SDS011;53400;50.364;14.874;2022-12-31T05:05:47;26.73;;;15.18;;
66546;SDS011;53400;50.364;14.874;2022-12-31T05:08:14;27.92;;;15.35;;
66546;SDS011;53400;50.364;14.874;2022-12-31T05:10:41;26.83;;;14.35;;
66546;SDS011;53400;50.364;14.874;2022-12-31T05:13:08;29.45;;;15.50;;
66546;SDS011;53400;50.364;14.874;2022-12-31T05:15:35;23.30;;;14.27;;
66546;SDS011;53400;50.364;14.874;2022-12-31T05:18:02;24.02;;;13.23;;
66546;SDS011;53400;50.364;14.874;2022-12-31T05:20:28;25.65;;;15.13;;
66546;SDS011;53400;50.364;14.874;2022-12-31T05:22:54;25.45;;;15.10;;
66546;SDS011;53400;50.364;14.874;2022-12-31T05:25:20;28.40;;;14.88;;
66546;SDS011;53400;50.364;14.874;2022-12-31T05:27:46;27.55;;;15.25;;
66546;SDS011;53400;50.364;14.874;2022-12-31T05:30:12;23.10;;;13.82;;
66546;SDS011;53400;50.364;14.874;2022-12-31T05:32:38;24.98;;;15.05;;
66546;SDS011;53400;50.364;14.874;2022-12-31T05:35:06;22.70;;;13.77;;
66546;SDS011;53400;50.364;14.874;2022-12-31T05:37:32;27.17;;;14.43;;
66546;SDS011;53400;50.364;14.874;2022-12-31T05:39:58;25.33;;;14.18;;
66546;SDS011;53400;50.364;14.874;2022-12-31T05:42:24;23.42;;;13.27;;
66546;SDS011;53400;50.364;14.874;2022-12-31T05:44:50;24.50;;;14.52;;
66546;SDS011;53400;50.364;14.874;2022-12-31T05:47:16;24.48;;;14.15;;
66546;SDS011;53400;50.364;14.874;2022-12-31T05:49:42;25.55;;;14.57;;
66546;SDS011;53400;50.364;14.874;2022-12-31T05:52:09;25.88;;;13.60;;
66546;SDS011;53400;50.364;14.874;2022-12-31T05:54:36;23.35;;;13.88;;
66546;SDS011;53400;50.364;14.874;2022-12-31T05:57:02;24.45;;;13.38;;
66546;SDS011;53400;50.364;14.874;2022-12-31T05:59:28;23.48;;;13.77;;
66546;SDS011;53400;50.364;14.874;2022-12-31T06:01:54;24.75;;;14.27;;
66546;SDS011;53400;50.364;14.874;2022-12-31T06:04:20;23.40;;;13.57;;
66546;SDS011;53400;50.364;14.874;2022-12-31T06:06:46;25.08;;;13.75;;
66546;SDS011;53400;50.364;14.874;2022-12-31T06:09:14;22.90;;;13.18;;
66546;SDS011;53400;50.364;14.874;2022-12-31T06:11:40;22.27;;;12.30;;
66546;SDS011;53400;50.364;14.874;2022-12-31T06:14:06;20.52;;;12.20;;
66546;SDS011;53400;50.364;14.874;2022-12-31T06:16:34;20.17;;;12.93;;
66546;SDS011;53400;50.364;14.874;2022-12-31T06:19:00;22.73;;;12.40;;
66546;SDS011;53400;50.364;14.874;2022-12-31T06:21:28;20.77;;;12.13;;
66546;SDS011;53400;50.364;14.874;2022-12-31T06:23:54;20.92;;;12.18;;
66546;SDS011;53400;50.364;14.874;2022-12-31T06:26:21;20.85;;;11.65;;
66546;SDS011;53400;50.364;14.874;2022-12-31T06:28:47;20.55;;;12.07;;
66546;SDS011;53400;50.364;14.874;2022-12-31T06:31:13;21.25;;;11.57;;
66546;SDS011;53400;50.364;14.874;2022-12-31T06:33:39;18.77;;;11.05;;
66546;SDS011;53400;50.364;14.874;2022-12-31T06:36:07;18.48;;;11.38;;
66546;SDS011;53400;50.364;14.874;2022-12-31T06:38:36;18.98;;;10.45;;
66546;SDS011;53400;50.364;14.874;2022-12-31T06:41:05;17.15;;;10.10;;
66546;SDS011;53400;50.364;14.874;2022-12-31T06:43:33;16.40;;;9.85;;
66546;SDS011;53400;50.364;14.874;2022-12-31T06:45:59;18.48;;;9.98;;
66546;SDS011;53400;50.364;14.874;2022-12-31T06:48:25;17.10;;;9.85;;
66546;SDS011;53400;50.364;14.874;2022-12-31T06:50:51;18.38;;;10.45;;
66546;SDS011;53400;50.364;14.874;2022-12-31T06:53:17;17.70;;;9.77;;
66546;SDS011;53400;50.364;14.874;2022-12-31T06:55:43;15.63;;;9.40;;
66546;SDS011;53400;50.364;14.874;2022-12-31T06:58:12;15.82;;;9.18;;
66546;SDS011;53400;50.364;14.874;2022-12-31T07:00:41;14.00;;;8.82;;
66546;SDS011;53400;50.364;14.874;2022-12-31T07:03:19;13.82;;;8.18;;
66546;SDS011;53400;50.364;14.874;2022-12-31T07:05:55;13.55;;;7.68;;
66546;SDS011;53400;50.364;14.874;2022-12-31T07:08:30;14.02;;;8.23;;
66546;SDS011;53400;50.364;14.874;2022-12-31T07:11:05;12.35;;;7.45;;
66546;SDS011;53400;50.364;14.874;2022-12-31T07:13:46;14.10;;;7.47;;
66546;SDS011;53400;50.364;14.874;2022-12-31T07:16:27;13.18;;;6.93;;
66546;SDS011;53400;50.364;14.874;2022-12-31T07:19:12;12.95;;;6.97;;
66546;SDS011;53400;50.364;14.874;2022-12-31T07:21:46;10.63;;;6.68;;
66546;SDS011;53400;50.364;14.874;2022-12-31T07:24:14;12.32;;;6.68;;
66546;SDS011;53400;50.364;14.874;2022-12-31T07:26:46;9.65;;;5.63;;
66546;SDS011;53400;50.364;14.874;2022-12-31T07:29:24;10.40;;;6.15;;
66546;SDS011;53400;50.364;14.874;2022-12-31T07:32:04;11.25;;;6.40;;
66546;SDS011;53400;50.364;14.874;2022-12-31T07:34:40;11.25;;;6.28;;
66546;SDS011;53400;50.364;14.874;2022-12-31T07:37:17;9.35;;;5.80;;
66546;SDS011;53400;50.364;14.874;2022-12-31T07:39:59;9.20;;;4.93;;
66546;SDS011;53400;50.364;14.874;2022-12-31T07:42:35;8.05;;;4.43;;
66546;SDS011;53400;50.364;14.874;2022-12-31T07:45:11;9.63;;;5.55;;
66546;SDS011;53400;50.364;14.874;2022-12-31T07:47:43;9.45;;;5.20;;
66546;SDS011;53400;50.364;14.874;2022-12-31T07:50:12;9.48;;;5.20;;
66546;SDS011;53400;50.364;14.874;2022-12-31T07:52:40;11.15;;;5.97;;
66546;SDS011;53400;50.364;14.874;2022-12-31T07:55:06;10.82;;;6.38;;
66546;SDS011;53400;50.364;14.874;2022-12-31T07:57:35;12.50;;;6.63;;
66546;SDS011;53400;50.364;14.874;2022-12-31T08:02:36;19.50;;;10.02;;
66546;SDS011;53400;50.364;14.874;2022-12-31T08:05:25;27.25;;;13.18;;
66546;SDS011;53400;50.364;14.874;2022-12-31T08:07:57;27.98;;;12.77;;
66546;SDS011;53400;50.364;14.874;2022-12-31T08:10:32;22.80;;;10.48;;
66546;SDS011;53400;50.364;14.874;2022-12-31T08:13:04;19.02;;;11.68;;
66546;SDS011;53400;50.364;14.874;2022-12-31T08:15:35;13.13;;;7.65;;
66546;SDS011;53400;50.364;14.874;2022-12-31T08:18:03;10.40;;;6.90;;
66546;SDS011;53400;50.364;14.874;2022-12-31T08:20:30;10.25;;;6.20;;
66546;SDS011;53400;50.364;14.874;2022-12-31T08:23:04;10.93;;;6.53;;
66546;SDS011;53400;50.364;14.874;2022-12-31T08:25:51;13.00;;;6.57;;
66546;SDS011;53400;50.364;14.874;2022-12-31T08:28:31;9.82;;;6.18;;
66546;SDS011;53400;50.364;14.874;2022-12-31T08:31:13;11.95;;;6.57;;
66546;SDS011;53400;50.364;14.874;2022-12-31T08:33:46;10.35;;;6.32;;
66546;SDS011;53400;50.364;14.874;2022-12-31T08:36:20;10.18;;;6.50;;
66546;SDS011;53400;50.364;14.874;2022-12-31T08:38:55;10.50;;;6.72;;
66546;SDS011;53400;50.364;14.874;2022-12-31T08:41:27;12.00;;;7.35;;
66546;SDS011;53400;50.364;14.874;2022-12-31T08:44:00;13.35;;;7.25;;
66546;SDS011;53400;50.364;14.874;2022-12-31T08:46:37;10.43;;;6.32;;
66546;SDS011;53400;50.364;14.874;2022-12-31T08:51:40;13.63;;;7.18;;
66546;SDS011;53400;50.364;14.874;2022-12-31T08:54:08;13.50;;;6.63;;
66546;SDS011;53400;50.364;14.874;2022-12-31T08:56:35;14.32;;;7.03;;
66546;SDS011;53400;50.364;14.874;2022-12-31T08:59:12;16.42;;;8.73;;
66546;SDS011;53400;50.364;14.874;2022-12-31T09:01:49;15.38;;;7.40;;
66546;SDS011;53400;50.364;14.874;2022-12-31T09:04:29;20.42;;;9.38;;
66546;SDS011;53400;50.364;14.874;2022-12-31T09:07:09;16.50;;;8.70;;
66546;SDS011;53400;50.364;14.874;2022-12-31T09:09:38;22.75;;;10.32;;
66546;SDS011;53400;50.364;14.874;2022-12-31T09:12:13;26.38;;;11.23;;
66546;SDS011;53400;50.364;14.874;2022-12-31T09:17:24;28.63;;;11.45;;
66546;SDS011;53400;50.364;14.874;2022-12-31T09:19:59;31.52;;;12.98;;
66546;SDS011;53400;50.364;14.874;2022-12-31T09:22:26;26.40;;;12.18;;
66546;SDS011;53400;50.364;14.874;2022-12-31T09:24:53;23.92;;;9.85;;
66546;SDS011;53400;50.364;14.874;2022-12-31T09:27:21;15.82;;;7.88;;
66546;SDS011;53400;50.364;14.874;2022-12-31T09:29:53;11.20;;;6.28;;
66546;SDS011;53400;50.364;14.874;2022-12-31T09:32:28;7.72;;;4.80;;
66546;SDS011;53400;50.364;14.874;2022-12-31T09:35:04;10.75;;;5.10;;
66546;SDS011;53400;50.364;14.874;2022-12-31T09:37:38;7.68;;;4.00;;
66546;SDS011;53400;50.364;14.874;2022-12-31T09:40:16;7.63;;;3.42;;
66546;SDS011;53400;50.364;14.874;2022-12-31T09:43:09;8.70;;;2.92;;
66546;SDS011;53400;50.364;14.874;2022-12-31T09:49:05;5.82;;;2.63;;
66546;SDS011;53400;50.364;14.874;2022-12-31T09:52:05;5.78;;;2.63;;
66546;SDS011;53400;50.364;14.874;2022-12-31T09:54:43;5.97;;;2.47;;
66546;SDS011;53400;50.364;14.874;2022-12-31T09:57:20;4.78;;;2.10;;
66546;SDS011;53400;50.364;14.874;2022-12-31T10:00:01;5.50;;;2.42;;
66546;SDS011;53400;50.364;14.874;2022-12-31T10:02:40;5.63;;;2.20;;
66546;SDS011;53400;50.364;14.874;2022-12-31T10:05:24;6.03;;;2.38;;
66546;SDS011;53400;50.364;14.874;2022-12-31T10:08:05;7.10;;;2.38;;
66546;SDS011;53400;50.364;14.874;2022-12-31T10:10:40;5.28;;;2.40;;
66546;SDS011;53400;50.364;14.874;2022-12-31T10:16:23;5.57;;;2.15;;
66546;SDS011;53400;50.364;14.874;2022-12-31T10:21:53;5.03;;;1.98;;
66546;SDS011;53400;50.364;14.874;2022-12-31T10:24:43;5.50;;;1.80;;
66546;SDS011;53400;50.364;14.874;2022-12-31T10:27:27;3.95;;;1.77;;
66546;SDS011;53400;50.364;14.874;2022-12-31T10:30:11;4.72;;;1.60;;
66546;SDS011;53400;50.364;14.874;2022-12-31T10:32:42;5.78;;;1.85;;
66546;SDS011;53400;50.364;14.874;2022-12-31T10:35:24;4.80;;;1.70;;
66546;SDS011;53400;50.364;14.874;2022-12-31T10:38:00;4.88;;;1.70;;
66546;SDS011;53400;50.364;14.874;2022-12-31T10:40:38;4.57;;;1.73;;
66546;SDS011;53400;50.364;14.874;2022-12-31T10:43:31;4.10;;;1.63;;
66546;SDS011;53400;50.364;14.874;2022-12-31T10:52:29;3.28;;;1.42;;
66546;SDS011;53400;50.364;14.874;2022-12-31T10:58:30;3.78;;;1.35;;
66546;SDS011;53400;50.364;14.874;2022-12-31T11:01:25;3.40;;;1.38;;
66546;SDS011;53400;50.364;14.874;2022-12-31T11:04:07;4.20;;;1.58;;
66546;SDS011;53400;50.364;14.874;2022-12-31T11:06:58;3.50;;;1.50;;
66546;SDS011;53400;50.364;14.874;2022-12-31T11:16:25;3.20;;;1.30;;
66546;SDS011;53400;50.364;14.874;2022-12-31T11:19:08;4.60;;;1.33;;
66546;SDS011;53400;50.364;14.874;2022-12-31T11:21:46;4.38;;;1.27;;
66546;SDS011;53400;50.364;14.874;2022-12-31T11:24:23;4.10;;;1.20;;
66546;SDS011;53400;50.364;14.874;2022-12-31T11:27:02;4.20;;;1.35;;
66546;SDS011;53400;50.364;14.874;2022-12-31T11:29:42;3.20;;;1.08;;
66546;SDS011;53400;50.364;14.874;2022-12-31T11:32:21;3.05;;;1.23;;
66546;SDS011;53400;50.364;14.874;2022-12-31T11:35:02;4.22;;;1.20;;
66546;SDS011;53400;50.364;14.874;2022-12-31T11:37:41;3.72;;;1.23;;
66546;SDS011;53400;50.364;14.874;2022-12-31T11:40:20;3.05;;;1.35;;
66546;SDS011;53400;50.364;14.874;2022-12-31T11:42:55;4.95;;;1.65;;
66546;SDS011;53400;50.364;14.874;2022-12-31T11:45:27;3.97;;;1.10;;
66546;SDS011;53400;50.364;14.874;2022-12-31T11:48:14;4.55;;;1.17;;
66546;SDS011;53400;50.364;14.874;2022-12-31T11:50:49;4.10;;;1.52;;
66546;SDS011;53400;50.364;14.874;2022-12-31T11:53:31;5.47;;;1.30;;
66546;SDS011;53400;50.364;14.874;2022-12-31T11:56:17;3.92;;;1.20;;
66546;SDS011;53400;50.364;14.874;2022-12-31T11:58:45;4.10;;;1.13;;
66546;SDS011;53400;50.364;14.874;2022-12-31T12:01:16;3.03;;;1.40;;
66546;SDS011;53400;50.364;14.874;2022-12-31T12:03:46;4.13;;;1.25;;
66546;SDS011;53400;50.364;14.874;2022-12-31T12:06:14;4.15;;;1.50;;
66546;SDS011;53400;50.364;14.874;2022-12-31T12:08:42;4.07;;;1.52;;
66546;SDS011;53400;50.364;14.874;2022-12-31T12:11:12;3.47;;;1.20;;
66546;SDS011;53400;50.364;14.874;2022-12-31T12:13:43;4.18;;;1.60;;
66546;SDS011;53400;50.364;14.874;2022-12-31T12:16:10;3.70;;;1.60;;
66546;SDS011;53400;50.364;14.874;2022-12-31T12:18:38;3.75;;;1.20;;
66546;SDS011;53400;50.364;14.874;2022-12-31T12:21:09;2.63;;;1.00;;
66546;SDS011;53400;50.364;14.874;2022-12-31T12:23:37;2.75;;;1.10;;
66546;SDS011;53400;50.364;14.874;2022-12-31T12:26:05;3.03;;;1.00;;
66546;SDS011;53400;50.364;14.874;2022-12-31T12:28:40;2.47;;;1.17;;
66546;SDS011;53400;50.364;14.874;2022-12-31T12:31:16;3.90;;;1.27;;
66546;SDS011;53400;50.364;14.874;2022-12-31T12:33:44;3.40;;;1.02;;
66546;SDS011;53400;50.364;14.874;2022-12-31T12:36:14;3.15;;;1.17;;
66546;SDS011;53400;50.364;14.874;2022-12-31T12:38:41;4.25;;;0.98;;
66546;SDS011;53400;50.364;14.874;2022-12-31T12:41:09;2.15;;;1.00;;
66546;SDS011;53400;50.364;14.874;2022-12-31T12:43:37;5.55;;;1.40;;
66546;SDS011;53400;50.364;14.874;2022-12-31T12:46:04;2.70;;;1.10;;
66546;SDS011;53400;50.364;14.874;2022-12-31T12:48:41;3.58;;;1.00;;
66546;SDS011;53400;50.364;14.874;2022-12-31T12:51:15;3.50;;;1.30;;
66546;SDS011;53400;50.364;14.874;2022-12-31T12:53:54;2.53;;;1.00;;
66546;SDS011;53400;50.364;14.874;2022-12-31T12:56:29;4.57;;;1.10;;
66546;SDS011;53400;50.364;14.874;2022-12-31T12:59:08;3.75;;;1.20;;
66546;SDS011;53400;50.364;14.874;2022-12-31T13:02:00;3.88;;;1.33;;
66546;SDS011;53400;50.364;14.874;2022-12-31T13:04:41;5.30;;;1.20;;
66546;SDS011;53400;50.364;14.874;2022-12-31T13:07:25;3.42;;;1.20;;
66546;SDS011;53400;50.364;14.874;2022-12-31T13:10:04;3.72;;;0.90;;
66546;SDS011;53400;50.364;14.874;2022-12-31T13:12:43;2.42;;;1.30;;
66546;SDS011;53400;50.364;14.874;2022-12-31T13:15:17;2.97;;;0.90;;
66546;SDS011;53400;50.364;14.874;2022-12-31T13:17:51;3.35;;;0.98;;
66546;SDS011;53400;50.364;14.874;2022-12-31T13:20:26;3.10;;;1.10;;
66546;SDS011;53400;50.364;14.874;2022-12-31T13:23:00;2.60;;;0.90;;
66546;SDS011;53400;50.364;14.874;2022-12-31T13:25:36;2.83;;;0.95;;
66546;SDS011;53400;50.364;14.874;2022-12-31T13:28:17;2.85;;;1.00;;
66546;SDS011;53400;50.364;14.874;2022-12-31T13:30:45;2.97;;;1.10;;
66546;SDS011;53400;50.364;14.874;2022-12-31T13:33:15;1.88;;;0.80;;
66546;SDS011;53400;50.364;14.874;2022-12-31T13:35:44;2.38;;;1.05;;
66546;SDS011;53400;50.364;14.874;2022-12-31T13:38:17;3.72;;;0.98;;
66546;SDS011;53400;50.364;14.874;2022-12-31T13:40:47;3.40;;;1.20;;
66546;SDS011;53400;50.364;14.874;2022-12-31T13:43:22;2.30;;;1.10;;
66546;SDS011;53400;50.364;14.874;2022-12-31T13:46:02;3.65;;;1.30;;
66546;SDS011;53400;50.364;14.874;2022-12-31T13:48:35;3.30;;;1.40;;
66546;SDS011;53400;50.364;14.874;2022-12-31T13:51:06;3.67;;;1.13;;
66546;SDS011;53400;50.364;14.874;2022-12-31T13:53:40;3.00;;;1.00;;
66546;SDS011;53400;50.364;14.874;2022-12-31T13:56:12;3.30;;;1.20;;
66546;SDS011;53400;50.364;14.874;2022-12-31T13:58:43;2.85;;;1.08;;
66546;SDS011;53400;50.364;14.874;2022-12-31T14:01:15;3.72;;;1.00;;
66546;SDS011;53400;50.364;14.874;2022-12-31T14:03:48;3.58;;;1.10;;
66546;SDS011;53400;50.364;14.874;2022-12-31T14:06:21;2.65;;;1.10;;
66546;SDS011;53400;50.364;14.874;2022-12-31T14:08:54;4.10;;;1.17;;
66546;SDS011;53400;50.364;14.874;2022-12-31T14:11:24;3.72;;;1.20;;
66546;SDS011;53400;50.364;14.874;2022-12-31T14:14:03;2.97;;;1.20;;
66546;SDS011;53400;50.364;14.874;2022-12-31T14:16:39;5.07;;;1.40;;
66546;SDS011;53400;50.364;14.874;2022-12-31T14:19:15;1.92;;;1.00;;
66546;SDS011;53400;50.364;14.874;2022-12-31T14:21:47;2.78;;;0.98;;
66546;SDS011;53400;50.364;14.874;2022-12-31T14:24:23;3.30;;;1.10;;
66546;SDS011;53400;50.364;14.874;2022-12-31T14:27:02;3.33;;;1.10;;
66546;SDS011;53400;50.364;14.874;2022-12-31T14:29:32;3.53;;;1.08;;
66546;SDS011;53400;50.364;14.874;2022-12-31T14:34:57;2.63;;;1.17;;
66546;SDS011;53400;50.364;14.874;2022-12-31T14:37:31;4.75;;;1.10;;
66546;SDS011;53400;50.364;14.874;2022-12-31T14:40:13;4.07;;;1.10;;
66546;SDS011;53400;50.364;14.874;2022-12-31T14:42:51;2.80;;;1.00;;
66546;SDS011;53400;50.364;14.874;2022-12-31T14:45:29;3.20;;;1.20;;
66546;SDS011;53400;50.364;14.874;2022-12-31T14:48:13;4.70;;;1.30;;
66546;SDS011;53400;50.364;14.874;2022-12-31T14:50:50;3.60;;;1.40;;
66546;SDS011;53400;50.364;14.874;2022-12-31T14:53:17;3.85;;;1.38;;
66546;SDS011;53400;50.364;14.874;2022-12-31T14:55:54;4.43;;;1.75;;
66546;SDS011;53400;50.364;14.874;2022-12-31T14:58:23;3.50;;;1.20;;
66546;SDS011;53400;50.364;14.874;2022-12-31T15:00:55;3.08;;;1.17;;
66546;SDS011;53400;50.364;14.874;2022-12-31T15:03:24;4.20;;;1.17;;
66546;SDS011;53400;50.364;14.874;2022-12-31T15:06:00;3.97;;;1.38;;
66546;SDS011;53400;50.364;14.874;2022-12-31T15:08:44;2.92;;;1.20;;
66546;SDS011;53400;50.364;14.874;2022-12-31T15:14:31;3.00;;;1.20;;
66546;SDS011;53400;50.364;14.874;2022-12-31T15:17:10;3.42;;;1.10;;
66546;SDS011;53400;50.364;14.874;2022-12-31T15:22:37;3.63;;;1.58;;
66546;SDS011;53400;50.364;14.874;2022-12-31T15:28:05;4.13;;;1.40;;
66546;SDS011;53400;50.364;14.874;2022-12-31T15:30:45;3.30;;;1.58;;
66546;SDS011;53400;50.364;14.874;2022-12-31T15:33:17;5.75;;;1.60;;
66546;SDS011;53400;50.364;14.874;2022-12-31T15:35:54;4.28;;;1.90;;
66546;SDS011;53400;50.364;14.874;2022-12-31T15:38:30;5.75;;;1.90;;
66546;SDS011;53400;50.364;14.874;2022-12-31T15:40:58;6.05;;;1.75;;